sensor_id;sensor_type;location;lat;lon;timestamp;pressure;altitude;pressure_sealevel;temperature;humidity
13968;BME280;39536;52.198;9.920;2023-04-06T00:02:12;101100.19;;;3.77;100.00
13968;BME280;39536;52.198;9.920;2023-04-06T00:04:38;101092.47;;;3.77;100.00
13968;BME280;39536;52.198;9.920;2023-04-06T00:07:06;101095.06;;;3.80;100.00
13968;BME280;39536;52.198;9.920;2023-04-06T00:09:33;101091.63;;;3.78;100.00
13968;BME280;39536;52.198;9.920;2023-04-06T00:12:00;101091.63;;;3.81;100.00
13968;BME280;39536;52.198;9.920;2023-04-06T00:14:26;101089.91;;;3.81;100.00
13968;BME280;39536;52.198;9.920;2023-04-06T00:16:53;101089.03;;;3.79;100.00
13968;BME280;39536;52.198;9.920;2023-04-06T00:19:20;101090.78;;;3.82;100.00
13968;BME280;39536;52.198;9.920;2023-04-06T00:21:47;101084.75;;;3.75;100.00
13968;BME280;39536;52.198;9.920;2023-04-06T00:24:15;101082.16;;;3.75;100.00
13968;BME280;39536;52.198;9.920;2023-04-06T00:26:41;101085.63;;;3.80;100.00
13968;BME280;39536;52.198;9.920;2023-04-06T00:29:08;101078.72;;;3.76;100.00
13968;BME280;39536;52.198;9.920;2023-04-06T00:31:34;101081.28;;;3.68;100.00
13968;BME280;39536;52.198;9.920;2023-04-06T00:34:01;101078.69;;;3.62;100.00
13968;BME280;39536;52.198;9.920;2023-04-06T00:36:28;101076.94;;;3.58;100.00
13968;BME280;39536;52.198;9.920;2023-04-06T00:38:55;101071.78;;;3.57;100.00
13968;BME280;39536;52.198;9.920;2023-04-06T00:41:23;101072.66;;;3.59;100.00
13968;BME280;39536;52.198;9.920;2023-04-06T00:43:49;101069.19;;;3.57;100.00
13968;BME280;39536;52.198;9.920;2023-04-06T00:46:16;101073.47;;;3.55;100.00
13968;BME280;39536;52.198;9.920;2023-04-06T00:48:43;101064.03;;;3.57;100.00
13968;BME280;39536;52.198;9.920;2023-04-06T00:51:09;101065.75;;;3.53;100.00
13968;BME280;39536;52.198;9.920;2023-04-06T00:53:36;101064.00;;;3.47;100.00
13968;BME280;39536;52.198;9.920;2023-04-06T00:56:03;101070.91;;;3.56;100.00
13968;BME280;39536;52.198;9.920;2023-04-06T00:58:31;101064.06;;;3.63;100.00
13968;BME280;39536;52.198;9.920;2023-04-06T01:00:58;101064.06;;;3.58;100.00
13968;BME280;39536;52.198;9.920;2023-04-06T01:03:24;101064.06;;;3.63;100.00
13968;BME280;39536;52.198;9.920;2023-04-06T01:05:51;101062.34;;;3.60;100.00
13968;BME280;39536;52.198;9.920;2023-04-06T01:08:23;101062.31;;;3.57;100.00
13968;BME280;39536;52.198;9.920;2023-04-06T01:10:50;101058.00;;;3.52;100.00
13968;BME280;39536;52.198;9.920;2023-04-06T01:13:16;101052.81;;;3.42;100.00
13968;BME280;39536;52.198;9.920;2023-04-06T01:15:45;101044.22;;;3.37;100.00
13968;BME280;39536;52.198;9.920;2023-04-06T01:18:12;101042.50;;;3.39;100.00
13968;BME280;39536;52.198;9.920;2023-04-06T01:20:39;101041.66;;;3.37;100.00
13968;BME280;39536;52.198;9.920;2023-04-06T01:23:07;101039.06;;;3.34;100.00
13968;BME280;39536;52.198;9.920;2023-04-06T01:25:33;101047.59;;;3.26;100.00
13968;BME280;39536;52.198;9.920;2023-04-06T01:28:00;101053.53;;;3.15;100.00
13968;BME280;39536;52.198;9.920;2023-04-06T01:30:27;101044.03;;;3.04;100.00
13968;BME280;39536;52.198;9.920;2023-04-06T01:32:53;101049.13;;;2.99;100.00
13968;BME280;39536;52.198;9.920;2023-04-06T01:35:20;101043.97;;;2.94;100.00
13968;BME280;39536;52.198;9.920;2023-04-06T01:37:47;101041.38;;;2.93;100.00
13968;BME280;39536;52.198;9.920;2023-04-06T01:40:15;101047.38;;;2.90;100.00
13968;BME280;39536;52.198;9.920;2023-04-06T01:42:41;101040.44;;;2.83;100.00
13968;BME280;39536;52.198;9.920;2023-04-06T01:45:09;101040.38;;;2.74;100.00
13968;BME280;39536;52.198;9.920;2023-04-06T01:47:35;101034.44;;;2.81;100.00
13968;BME280;39536;52.198;9.920;2023-04-06T01:50:02;101048.09;;;2.77;100.00
13968;BME280;39536;52.198;9.920;2023-04-06T01:52:31;101043.88;;;2.82;100.00
13968;BME280;39536;52.198;9.920;2023-04-06T01:54:58;101042.13;;;2.80;100.00
13968;BME280;39536;52.198;9.920;2023-04-06T01:57:26;101044.69;;;2.75;100.00
13968;BME280;39536;52.198;9.920;2023-04-06T01:59:52;101046.44;;;2.81;100.00
13968;BME280;39536;52.198;9.920;2023-04-06T02:02:19;101043.81;;;2.76;100.00
13968;BME280;39536;52.198;9.920;2023-04-06T02:04:45;101048.09;;;2.74;100.00
13968;BME280;39536;52.198;9.920;2023-04-06T02:07:12;101042.09;;;2.72;100.00
13968;BME280;39536;52.198;9.920;2023-04-06T02:09:39;101039.50;;;2.73;100.00
13968;BME280;39536;52.198;9.920;2023-04-06T02:12:05;101037.81;;;2.75;100.00
13968;BME280;39536;52.198;9.920;2023-04-06T02:14:33;101042.91;;;2.69;100.00
13968;BME280;39536;52.198;9.920;2023-04-06T02:17:00;101036.03;;;2.67;100.00
13968;BME280;39536;52.198;9.920;2023-04-06T02:19:26;101036.84;;;2.61;100.00
13968;BME280;39536;52.198;9.920;2023-04-06T02:21:53;101037.69;;;2.60;100.00
13968;BME280;39536;52.198;9.920;2023-04-06T02:24:19;101034.31;;;2.63;100.00
13968;BME280;39536;52.198;9.920;2023-04-06T02:26:46;101036.88;;;2.67;100.00
13968;BME280;39536;52.198;9.920;2023-04-06T02:29:12;101031.72;;;2.64;100.00
13968;BME280;39536;52.198;9.920;2023-04-06T02:31:40;101035.16;;;2.65;100.00
13968;BME280;39536;52.198;9.920;2023-04-06T02:34:07;101037.69;;;2.56;100.00
13968;BME280;39536;52.198;9.920;2023-04-06T02:36:36;101035.06;;;2.51;100.00
13968;BME280;39536;52.198;9.920;2023-04-06T02:39:02;101028.19;;;2.50;100.00
13968;BME280;39536;52.198;9.920;2023-04-06T02:41:29;101032.47;;;2.51;100.00
13968;BME280;39536;52.198;9.920;2023-04-06T02:43:56;101029.91;;;2.51;100.00
13968;BME280;39536;52.198;9.920;2023-04-06T02:46:22;101027.28;;;2.43;100.00
13968;BME280;39536;52.198;9.920;2023-04-06T02:48:50;101019.56;;;2.40;100.00
13968;BME280;39536;52.198;9.920;2023-04-06T02:51:17;101023.81;;;2.38;100.00
13968;BME280;39536;52.198;9.920;2023-04-06T02:53:43;101028.06;;;2.35;100.00
13968;BME280;39536;52.198;9.920;2023-04-06T02:56:10;101022.00;;;2.28;100.00
13968;BME280;39536;52.198;9.920;2023-04-06T02:58:36;101015.19;;;2.33;100.00
13968;BME280;39536;52.198;9.920;2023-04-06T03:01:03;101021.22;;;2.35;100.00
13968;BME280;39536;52.198;9.920;2023-04-06T03:03:30;101023.81;;;2.38;100.00
13968;BME280;39536;52.198;9.920;2023-04-06T03:05:58;101022.00;;;2.29;100.00
13968;BME280;39536;52.198;9.920;2023-04-06T03:08:25;101016.00;;;2.26;100.00
13968;BME280;39536;52.198;9.920;2023-04-06T03:10:52;101017.66;;;2.24;100.00
13968;BME280;39536;52.198;9.920;2023-04-06T03:13:18;101013.31;;;2.14;100.00
13968;BME280;39536;52.198;9.920;2023-04-06T03:15:45;101010.75;;;2.15;100.00
13968;BME280;39536;52.198;9.920;2023-04-06T03:18:12;101014.22;;;2.20;100.00
13968;BME280;39536;52.198;9.920;2023-04-06T03:20:39;101015.91;;;2.15;100.00
13968;BME280;39536;52.198;9.920;2023-04-06T03:23:07;101015.84;;;2.09;100.00
13968;BME280;39536;52.198;9.920;2023-04-06T03:25:33;101017.50;;;2.05;100.00
13968;BME280;39536;52.198;9.920;2023-04-06T03:28:00;101013.19;;;2.00;100.00
13968;BME280;39536;52.198;9.920;2023-04-06T03:30:26;101012.34;;;2.05;100.00
13968;BME280;39536;52.198;9.920;2023-04-06T03:32:53;101010.50;;;1.92;100.00
13968;BME280;39536;52.198;9.920;2023-04-06T03:35:20;101007.88;;;1.86;100.00
13968;BME280;39536;52.198;9.920;2023-04-06T03:37:46;101007.91;;;1.89;100.00
13968;BME280;39536;52.198;9.920;2023-04-06T03:40:14;101017.38;;;1.90;100.00
13968;BME280;39536;52.198;9.920;2023-04-06T03:42:41;101007.06;;;1.89;100.00
13968;BME280;39536;52.198;9.920;2023-04-06T03:45:08;101013.81;;;1.80;100.00
13968;BME280;39536;52.198;9.920;2023-04-06T03:47:35;101008.75;;;1.87;100.00
13968;BME280;39536;52.198;9.920;2023-04-06T03:50:02;101015.63;;;1.89;100.00
13968;BME280;39536;52.198;9.920;2023-04-06T03:52:28;101015.56;;;1.83;100.00
13968;BME280;39536;52.198;9.920;2023-04-06T03:54:55;101013.81;;;1.80;100.00
13968;BME280;39536;52.198;9.920;2023-04-06T03:57:23;101013.69;;;1.70;100.00
13968;BME280;39536;52.198;9.920;2023-04-06T03:59:50;101013.69;;;1.70;100.00
13968;BME280;39536;52.198;9.920;2023-04-06T04:02:16;101019.69;;;1.70;100.00
13968;BME280;39536;52.198;9.920;2023-04-06T04:04:43;101022.19;;;1.64;100.00
13968;BME280;39536;52.198;9.920;2023-04-06T04:07:09;101015.34;;;1.65;100.00
13968;BME280;39536;52.198;9.920;2023-04-06T04:09:36;101018.78;;;1.65;100.00
13968;BME280;39536;52.198;9.920;2023-04-06T04:12:03;101023.94;;;1.67;100.00
13968;BME280;39536;52.198;9.920;2023-04-06T04:14:31;101027.28;;;1.59;100.00
13968;BME280;39536;52.198;9.920;2023-04-06T04:16:57;101023.91;;;1.62;100.00
13968;BME280;39536;52.198;9.920;2023-04-06T04:19:24;101028.06;;;1.54;100.00
13968;BME280;39536;52.198;9.920;2023-04-06T04:21:51;101028.84;;;1.48;100.00
13968;BME280;39536;52.198;9.920;2023-04-06T04:24:17;101022.84;;;1.48;100.00
13968;BME280;39536;52.198;9.920;2023-04-06T04:26:44;101022.81;;;1.46;100.00
13968;BME280;39536;52.198;9.920;2023-04-06T04:29:10;101016.91;;;1.52;100.00
13968;BME280;39536;52.198;9.920;2023-04-06T04:31:38;101021.16;;;1.47;100.00
13968;BME280;39536;52.198;9.920;2023-04-06T04:34:05;101019.41;;;1.46;100.00
13968;BME280;39536;52.198;9.920;2023-04-06T04:36:33;101021.16;;;1.48;100.00
13968;BME280;39536;52.198;9.920;2023-04-06T04:38:59;101021.19;;;1.50;100.00
13968;BME280;39536;52.198;9.920;2023-04-06T04:41:26;101013.44;;;1.47;100.00
13968;BME280;39536;52.198;9.920;2023-04-06T04:43:53;101023.75;;;1.51;100.00
13968;BME280;39536;52.198;9.920;2023-04-06T04:46:20;101022.03;;;1.50;100.00
13968;BME280;39536;52.198;9.920;2023-04-06T04:48:48;101018.69;;;1.57;100.00
13968;BME280;39536;52.198;9.920;2023-04-06T04:51:15;101025.53;;;1.58;100.00
13968;BME280;39536;52.198;9.920;2023-04-06T04:53:41;101031.53;;;1.56;100.00
13968;BME280;39536;52.198;9.920;2023-04-06T04:56:08;101031.41;;;1.48;100.00
13968;BME280;39536;52.198;9.920;2023-04-06T04:58:35;101030.44;;;1.40;100.00
13968;BME280;39536;52.198;9.920;2023-04-06T05:01:02;101026.25;;;1.44;100.00
13968;BME280;39536;52.198;9.920;2023-04-06T05:03:28;101027.22;;;1.53;100.00
13968;BME280;39536;52.198;9.920;2023-04-06T05:05:56;101034.88;;;1.50;100.00
13968;BME280;39536;52.198;9.920;2023-04-06T05:08:23;101025.34;;;1.43;100.00
13968;BME280;39536;52.198;9.920;2023-04-06T05:10:49;101025.31;;;1.40;100.00
13968;BME280;39536;52.198;9.920;2023-04-06T05:13:16;101022.03;;;1.50;100.00
13968;BME280;39536;52.198;9.920;2023-04-06T05:15:43;101023.81;;;1.56;100.00
13968;BME280;39536;52.198;9.920;2023-04-06T05:18:10;101021.09;;;1.45;100.00
13968;BME280;39536;52.198;9.920;2023-04-06T05:20:38;101025.44;;;1.49;100.00
13968;BME280;39536;52.198;9.920;2023-04-06T05:23:06;101022.97;;;1.58;100.00
13968;BME280;39536;52.198;9.920;2023-04-06T05:25:32;101023.91;;;1.64;100.00
13968;BME280;39536;52.198;9.920;2023-04-06T05:27:59;101028.25;;;1.69;100.00
13968;BME280;39536;52.198;9.920;2023-04-06T05:30:27;101019.66;;;1.67;100.00
13968;BME280;39536;52.198;9.920;2023-04-06T05:32:54;101019.72;;;1.73;100.00
13968;BME280;39536;52.198;9.920;2023-04-06T05:35:20;101024.94;;;1.78;100.00
13968;BME280;39536;52.198;9.920;2023-04-06T05:37:47;101015.63;;;1.89;100.00
13968;BME280;39536;52.198;9.920;2023-04-06T05:40:15;101026.03;;;2.00;100.00
13968;BME280;39536;52.198;9.920;2023-04-06T05:42:42;101027.75;;;2.04;100.00
13968;BME280;39536;52.198;9.920;2023-04-06T05:45:10;101027.03;;;2.17;100.00
13968;BME280;39536;52.198;9.920;2023-04-06T05:47:41;101027.16;;;2.28;100.00
13968;BME280;39536;52.198;9.920;2023-04-06T05:50:09;101023.78;;;2.37;100.00
13968;BME280;39536;52.198;9.920;2023-04-06T05:52:35;101028.16;;;2.45;100.00
13968;BME280;39536;52.198;9.920;2023-04-06T05:55:02;101031.66;;;2.55;100.00
13968;BME280;39536;52.198;9.920;2023-04-06T05:57:30;101028.22;;;2.54;100.00
13968;BME280;39536;52.198;9.920;2023-04-06T05:59:57;101019.75;;;2.68;100.00
13968;BME280;39536;52.198;9.920;2023-04-06T06:02:23;101018.16;;;2.84;100.00
13968;BME280;39536;52.198;9.920;2023-04-06T06:04:50;101010.47;;;2.84;100.00
13968;BME280;39536;52.198;9.920;2023-04-06T06:07:16;101013.13;;;3.04;100.00
13968;BME280;39536;52.198;9.920;2023-04-06T06:09:43;101014.03;;;3.10;100.00
13968;BME280;39536;52.198;9.920;2023-04-06T06:12:09;101004.63;;;3.20;100.00
13968;BME280;39536;52.198;9.920;2023-04-06T06:14:37;101011.59;;;3.35;100.00
13968;BME280;39536;52.198;9.920;2023-04-06T06:17:04;101008.19;;;3.48;100.00
13968;BME280;39536;52.198;9.920;2023-04-06T06:19:30;101015.13;;;3.55;100.00
13968;BME280;39536;52.198;9.920;2023-04-06T06:21:57;101002.25;;;3.67;100.00
13968;BME280;39536;52.198;9.920;2023-04-06T06:24:23;101004.03;;;3.81;100.00
13968;BME280;39536;52.198;9.920;2023-04-06T06:26:50;101009.19;;;3.87;100.00
13968;BME280;39536;52.198;9.920;2023-04-06T06:29:17;101008.34;;;3.94;100.00
13968;BME280;39536;52.198;9.920;2023-04-06T06:31:45;101012.66;;;3.97;100.00
13968;BME280;39536;52.198;9.920;2023-04-06T06:34:11;101010.06;;;3.98;100.00
13968;BME280;39536;52.198;9.920;2023-04-06T06:36:38;101014.41;;;4.16;100.00
13968;BME280;39536;52.198;9.920;2023-04-06T06:39:05;101017.00;;;4.21;100.00
13968;BME280;39536;52.198;9.920;2023-04-06T06:41:32;101020.44;;;4.33;100.00
13968;BME280;39536;52.198;9.920;2023-04-06T06:43:58;101011.84;;;4.40;100.00
13968;BME280;39536;52.198;9.920;2023-04-06T06:46:25;101017.00;;;4.48;100.00
13968;BME280;39536;52.198;9.920;2023-04-06T06:48:52;101011.84;;;4.65;100.00
13968;BME280;39536;52.198;9.920;2023-04-06T06:51:19;101010.97;;;4.86;100.00
13968;BME280;39536;52.198;9.920;2023-04-06T06:53:46;101005.78;;;5.00;100.00
13968;BME280;39536;52.198;9.920;2023-04-06T06:56:12;101010.03;;;5.15;100.00
13968;BME280;39536;52.198;9.920;2023-04-06T06:58:41;101006.53;;;5.29;100.00
13968;BME280;39536;52.198;9.920;2023-04-06T07:01:08;101011.66;;;5.39;100.00
13968;BME280;39536;52.198;9.920;2023-04-06T07:03:35;101009.06;;;5.45;100.00
13968;BME280;39536;52.198;9.920;2023-04-06T07:06:03;101005.56;;;5.61;100.00
13968;BME280;39536;52.198;9.920;2023-04-06T07:08:29;101006.41;;;5.68;100.00
13968;BME280;39536;52.198;9.920;2023-04-06T07:10:56;101003.75;;;5.80;100.00
13968;BME280;39536;52.198;9.920;2023-04-06T07:13:23;101001.97;;;5.96;100.00
13968;BME280;39536;52.198;9.920;2023-04-06T07:15:50;101009.63;;;6.11;97.20
13968;BME280;39536;52.198;9.920;2023-04-06T07:18:17;101000.94;;;6.21;95.83
13968;BME280;39536;52.198;9.920;2023-04-06T07:20:43;101000.84;;;6.32;96.72
13968;BME280;39536;52.198;9.920;2023-04-06T07:23:11;101005.97;;;6.38;95.42
13968;BME280;39536;52.198;9.920;2023-04-06T07:25:38;101000.69;;;6.52;91.81
13968;BME280;39536;52.198;9.920;2023-04-06T07:28:05;101003.22;;;6.58;90.67
13968;BME280;39536;52.198;9.920;2023-04-06T07:30:31;100995.47;;;6.58;90.29
13968;BME280;39536;52.198;9.920;2023-04-06T07:32:58;101002.28;;;6.67;87.80
13968;BME280;39536;52.198;9.920;2023-04-06T07:35:25;100996.16;;;6.77;88.62
13968;BME280;39536;52.198;9.920;2023-04-06T07:37:52;100996.16;;;6.76;88.52
13968;BME280;39536;52.198;9.920;2023-04-06T07:40:20;100993.44;;;6.88;87.24
13968;BME280;39536;52.198;9.920;2023-04-06T07:42:47;101000.25;;;6.98;83.80
13968;BME280;39536;52.198;9.920;2023-04-06T07:45:14;100994.03;;;7.14;84.23
13968;BME280;39536;52.198;9.920;2023-04-06T07:47:41;100991.34;;;7.22;85.96
13968;BME280;39536;52.198;9.920;2023-04-06T07:50:08;100990.38;;;7.32;84.04
13968;BME280;39536;52.198;9.920;2023-04-06T07:52:35;100991.13;;;7.40;80.09
13968;BME280;39536;52.198;9.920;2023-04-06T07:55:02;100994.41;;;7.53;80.78
13968;BME280;39536;52.198;9.920;2023-04-06T07:57:30;100989.84;;;7.72;82.38
13968;BME280;39536;52.198;9.920;2023-04-06T07:59:57;100979.34;;;7.81;82.10
13968;BME280;39536;52.198;9.920;2023-04-06T08:02:26;100977.47;;;7.93;76.70
13968;BME280;39536;52.198;9.920;2023-04-06T08:04:52;100980.91;;;7.93;71.14
13968;BME280;39536;52.198;9.920;2023-04-06T08:07:19;100980.88;;;7.98;72.08
13968;BME280;39536;52.198;9.920;2023-04-06T08:09:45;100980.72;;;8.07;71.20
13968;BME280;39536;52.198;9.920;2023-04-06T08:12:12;100983.34;;;8.07;69.87
13968;BME280;39536;52.198;9.920;2023-04-06T08:14:40;100984.00;;;8.18;70.45
13968;BME280;39536;52.198;9.920;2023-04-06T08:17:07;100985.88;;;8.10;65.73
13968;BME280;39536;52.198;9.920;2023-04-06T08:19:33;100982.41;;;8.09;66.95
13968;BME280;39536;52.198;9.920;2023-04-06T08:22:00;100984.00;;;8.18;68.33
13968;BME280;39536;52.198;9.920;2023-04-06T08:24:27;100974.28;;;8.31;68.84
13968;BME280;39536;52.198;9.920;2023-04-06T08:26:54;100975.06;;;8.36;71.42
13968;BME280;39536;52.198;9.920;2023-04-06T08:29:20;100978.41;;;8.47;67.80
13968;BME280;39536;52.198;9.920;2023-04-06T08:31:48;100977.41;;;8.53;63.92
13968;BME280;39536;52.198;9.920;2023-04-06T08:34:15;100975.66;;;8.53;62.94
13968;BME280;39536;52.198;9.920;2023-04-06T08:36:41;100978.41;;;8.47;63.58
13968;BME280;39536;52.198;9.920;2023-04-06T08:39:08;100974.00;;;8.51;63.70
13968;BME280;39536;52.198;9.920;2023-04-06T08:41:35;100971.19;;;8.63;62.55
13968;BME280;39536;52.198;9.920;2023-04-06T08:44:02;100976.06;;;8.82;64.92
13968;BME280;39536;52.198;9.920;2023-04-06T08:46:30;100971.56;;;8.91;61.92
13968;BME280;39536;52.198;9.920;2023-04-06T08:48:59;100975.69;;;9.01;64.04
13968;BME280;39536;52.198;9.920;2023-04-06T08:51:27;100968.44;;;9.17;62.09
13968;BME280;39536;52.198;9.920;2023-04-06T08:53:56;100971.69;;;9.29;57.91
13968;BME280;39536;52.198;9.920;2023-04-06T08:56:24;100964.56;;;9.37;56.93
13968;BME280;39536;52.198;9.920;2023-04-06T08:58:52;100968.97;;;9.35;58.15
13968;BME280;39536;52.198;9.920;2023-04-06T09:01:21;100967.03;;;9.44;57.00
13968;BME280;39536;52.198;9.920;2023-04-06T09:03:49;100966.78;;;9.55;56.71
13968;BME280;39536;52.198;9.920;2023-04-06T09:06:18;100969.03;;;9.72;56.85
13968;BME280;39536;52.198;9.920;2023-04-06T09:08:44;100968.13;;;9.73;54.43
13968;BME280;39536;52.198;9.920;2023-04-06T09:11:11;100965.63;;;9.68;54.22
13968;BME280;39536;52.198;9.920;2023-04-06T09:13:45;100967.94;;;9.82;55.42
13968;BME280;39536;52.198;9.920;2023-04-06T09:16:11;100970.78;;;10.09;53.81
13968;BME280;39536;52.198;9.920;2023-04-06T09:18:38;100971.59;;;10.12;49.55
13968;BME280;39536;52.198;9.920;2023-04-06T09:21:06;100969.78;;;10.14;49.99
13968;BME280;39536;52.198;9.920;2023-04-06T09:23:34;100969.63;;;10.21;49.56
13968;BME280;39536;52.198;9.920;2023-04-06T09:26:08;100966.91;;;10.28;48.96
13968;BME280;39536;52.198;9.920;2023-04-06T09:28:43;100967.38;;;10.43;50.65
13968;BME280;39536;52.198;9.920;2023-04-06T09:31:10;100956.78;;;10.50;49.54
13968;BME280;39536;52.198;9.920;2023-04-06T09:33:38;100964.16;;;10.67;49.62
13968;BME280;39536;52.198;9.920;2023-04-06T09:36:06;100956.09;;;10.76;50.44
13968;BME280;39536;52.198;9.920;2023-04-06T09:38:36;100951.38;;;10.91;51.88
13968;BME280;39536;52.198;9.920;2023-04-06T09:41:03;100955.31;;;11.05;52.95
13968;BME280;39536;52.198;9.920;2023-04-06T09:43:30;100948.00;;;11.18;51.87
13968;BME280;39536;52.198;9.920;2023-04-06T09:45:56;100951.22;;;11.28;48.65
13968;BME280;39536;52.198;9.920;2023-04-06T09:48:27;100948.38;;;11.36;44.64
13968;BME280;39536;52.198;9.920;2023-04-06T09:50:59;100940.69;;;11.31;44.91
13968;BME280;39536;52.198;9.920;2023-04-06T09:53:26;100938.59;;;11.42;45.10
13968;BME280;39536;52.198;9.920;2023-04-06T09:55:57;100936.63;;;11.50;46.73
13968;BME280;39536;52.198;9.920;2023-04-06T09:58:27;100931.94;;;11.62;46.16
13968;BME280;39536;52.198;9.920;2023-04-06T10:01:04;100937.84;;;11.68;47.28
13968;BME280;39536;52.198;9.920;2023-04-06T10:03:37;100935.78;;;11.78;45.74
13968;BME280;39536;52.198;9.920;2023-04-06T10:06:11;100932.78;;;11.92;45.80
13968;BME280;39536;52.198;9.920;2023-04-06T10:08:42;100927.63;;;11.90;42.76
13968;BME280;39536;52.198;9.920;2023-04-06T10:11:13;100928.50;;;11.89;42.90
13968;BME280;39536;52.198;9.920;2023-04-06T10:13:40;100925.16;;;11.84;42.25
13968;BME280;39536;52.198;9.920;2023-04-06T10:16:07;100928.91;;;11.75;43.33
13968;BME280;39536;52.198;9.920;2023-04-06T10:18:34;100924.28;;;11.84;43.88
13968;BME280;39536;52.198;9.920;2023-04-06T10:21:05;100927.31;;;11.99;42.42
13968;BME280;39536;52.198;9.920;2023-04-06T10:23:35;100937.03;;;11.94;41.71
13968;BME280;39536;52.198;9.920;2023-04-06T10:26:02;100931.47;;;12.05;43.97
13968;BME280;39536;52.198;9.920;2023-04-06T10:28:32;100923.13;;;12.20;43.38
13968;BME280;39536;52.198;9.920;2023-04-06T10:31:02;100925.50;;;12.28;41.12
13968;BME280;39536;52.198;9.920;2023-04-06T10:33:30;100922.63;;;12.36;40.85
13968;BME280;39536;52.198;9.920;2023-04-06T10:35:57;100919.22;;;12.34;40.99
13968;BME280;39536;52.198;9.920;2023-04-06T10:38:33;100916.00;;;12.25;39.57
13968;BME280;39536;52.198;9.920;2023-04-06T10:41:03;100915.28;;;12.20;40.14
13968;BME280;39536;52.198;9.920;2023-04-06T10:43:33;100928.94;;;12.02;39.74
13968;BME280;39536;52.198;9.920;2023-04-06T10:46:00;100921.91;;;12.06;40.39
13968;BME280;39536;52.198;9.920;2023-04-06T10:48:36;100919.94;;;12.12;40.35
13968;BME280;39536;52.198;9.920;2023-04-06T10:51:07;100920.28;;;12.28;40.75
13968;BME280;39536;52.198;9.920;2023-04-06T10:53:34;100917.19;;;12.42;39.63
13968;BME280;39536;52.198;9.920;2023-04-06T10:56:02;100909.16;;;12.48;39.43
13968;BME280;39536;52.198;9.920;2023-04-06T10:58:29;100910.53;;;12.58;39.41
13968;BME280;39536;52.198;9.920;2023-04-06T11:00:57;100906.53;;;12.73;39.32
13968;BME280;39536;52.198;9.920;2023-04-06T11:03:25;100907.88;;;12.83;38.62
13968;BME280;39536;52.198;9.920;2023-04-06T11:05:52;100907.88;;;12.60;39.61
13968;BME280;39536;52.198;9.920;2023-04-06T11:08:23;100908.50;;;12.66;40.28
13968;BME280;39536;52.198;9.920;2023-04-06T11:10:50;100911.72;;;12.75;41.30
13968;BME280;39536;52.198;9.920;2023-04-06T11:13:16;100906.25;;;12.81;40.17
13968;BME280;39536;52.198;9.920;2023-04-06T11:15:43;100905.41;;;13.04;41.00
13968;BME280;39536;52.198;9.920;2023-04-06T11:18:11;100908.53;;;13.13;39.07
13968;BME280;39536;52.198;9.920;2023-04-06T11:20:38;100905.59;;;13.23;39.52
13968;BME280;39536;52.198;9.920;2023-04-06T11:23:04;100905.16;;;13.35;39.12
13968;BME280;39536;52.198;9.920;2023-04-06T11:25:31;100899.81;;;13.38;39.80
13968;BME280;39536;52.198;9.920;2023-04-06T11:27:58;100898.72;;;13.44;39.29
13968;BME280;39536;52.198;9.920;2023-04-06T11:30:25;100902.66;;;13.32;38.48
13968;BME280;39536;52.198;9.920;2023-04-06T11:32:51;100896.22;;;13.40;39.55
13968;BME280;39536;52.198;9.920;2023-04-06T11:35:23;100892.88;;;13.59;39.83
13968;BME280;39536;52.198;9.920;2023-04-06T11:37:50;100895.06;;;13.70;40.18
13968;BME280;39536;52.198;9.920;2023-04-06T11:40:20;100891.97;;;13.82;38.04
13968;BME280;39536;52.198;9.920;2023-04-06T11:42:52;100897.31;;;13.57;37.86
13968;BME280;39536;52.198;9.920;2023-04-06T11:45:19;100889.78;;;13.71;38.52
13968;BME280;39536;52.198;9.920;2023-04-06T11:47:55;100885.78;;;13.83;38.01
13968;BME280;39536;52.198;9.920;2023-04-06T11:50:23;100881.69;;;13.77;36.43
13968;BME280;39536;52.198;9.920;2023-04-06T11:52:58;100881.72;;;13.76;36.73
13968;BME280;39536;52.198;9.920;2023-04-06T11:55:25;100887.09;;;13.73;36.88
13968;BME280;39536;52.198;9.920;2023-04-06T11:57:52;100886.81;;;13.58;37.25
13968;BME280;39536;52.198;9.920;2023-04-06T12:00:20;100882.41;;;13.81;37.49
13968;BME280;39536;52.198;9.920;2023-04-06T12:02:50;100876.16;;;14.05;37.71
13968;BME280;39536;52.198;9.920;2023-04-06T12:05:16;100859.03;;;14.39;36.86
13968;BME280;39536;52.198;9.920;2023-04-06T12:07:44;100867.34;;;14.49;36.42
13968;BME280;39536;52.198;9.920;2023-04-06T12:10:11;100867.88;;;14.57;37.15
13968;BME280;39536;52.198;9.920;2023-04-06T12:12:38;100859.28;;;14.74;37.82
13968;BME280;39536;52.198;9.920;2023-04-06T12:15:06;100857.28;;;14.98;37.21
13968;BME280;39536;52.198;9.920;2023-04-06T12:17:32;100863.28;;;15.01;35.78
13968;BME280;39536;52.198;9.920;2023-04-06T12:19:59;100851.34;;;14.94;35.52
13968;BME280;39536;52.198;9.920;2023-04-06T12:22:26;100856.84;;;14.88;35.29
13968;BME280;39536;52.198;9.920;2023-04-06T12:24:54;100859.84;;;14.81;35.68
13968;BME280;39536;52.198;9.920;2023-04-06T12:27:20;100855.94;;;14.70;36.28
13968;BME280;39536;52.198;9.920;2023-04-06T12:29:47;100859.03;;;14.39;36.40
13968;BME280;39536;52.198;9.920;2023-04-06T12:32:14;100855.47;;;14.40;36.46
13968;BME280;39536;52.198;9.920;2023-04-06T12:34:40;100849.00;;;14.28;37.09
13968;BME280;39536;52.198;9.920;2023-04-06T12:37:07;100842.69;;;14.32;37.64
13968;BME280;39536;52.198;9.920;2023-04-06T12:39:34;100837.63;;;14.48;37.12
13968;BME280;39536;52.198;9.920;2023-04-06T12:42:02;100845.59;;;14.06;38.77
13968;BME280;39536;52.198;9.920;2023-04-06T12:44:29;100843.44;;;14.36;39.73
13968;BME280;39536;52.198;9.920;2023-04-06T12:46:56;100840.81;;;14.57;40.11
13968;BME280;39536;52.198;9.920;2023-04-06T12:49:23;100840.41;;;14.66;38.96
13968;BME280;39536;52.198;9.920;2023-04-06T12:51:49;100834.59;;;14.97;39.37
13968;BME280;39536;52.198;9.920;2023-04-06T12:54:16;100837.22;;;14.97;39.33